createdAt,value
2023-04-15T00:02:18.978Z,93686.69
2023-04-15T00:04:46.999Z,93652.03
2023-04-15T00:07:14.965Z,93683.84
2023-04-15T00:09:42.319Z,93677.09
2023-04-15T00:12:09.232Z,93685.69
2023-04-15T00:14:36.863Z,93667.88
2023-04-15T00:17:04.749Z,93674.63
2023-04-15T00:19:32.736Z,93687.53
2023-04-15T00:22:00.849Z,93682.78
2023-04-15T00:24:27.945Z,93667.88
2023-04-15T00:26:54.828Z,93680.81
2023-04-15T00:29:21.775Z,93679.09
2023-04-15T00:31:49.327Z,93661.44
2023-04-15T00:34:16.085Z,93653.22
2023-04-15T00:36:44.053Z,93659.00
2023-04-15T00:39:11.100Z,93648.47
2023-04-15T00:41:39.764Z,93664.47
2023-04-15T00:44:07.173Z,93669.50
2023-04-15T00:46:36.911Z,93671.84
2023-04-15T00:49:05.110Z,93671.97
2023-04-15T00:51:36.231Z,93637.28
2023-04-15T00:54:04.671Z,93636.66
2023-04-15T00:56:31.600Z,93655.44
2023-04-15T00:59:00.003Z,93638.16
2023-04-15T01:01:27.342Z,93666.78
2023-04-15T01:03:56.854Z,93641.81
2023-04-15T01:06:23.790Z,93662.19
2023-04-15T01:08:51.033Z,93656.19
2023-04-15T01:11:19.395Z,93665.75
2023-04-15T01:13:47.626Z,93654.50
2023-04-15T01:16:15.140Z,93674.66
2023-04-15T01:18:42.553Z,93644.31
2023-04-15T01:21:09.680Z,93670.00
2023-04-15T01:23:38.680Z,93641.13
2023-04-15T01:26:10.405Z,93641.69
2023-04-15T01:28:38.321Z,93663.09
2023-04-15T01:31:10.062Z,93656.13
2023-04-15T01:33:38.196Z,93655.94
2023-04-15T01:36:06.279Z,93676.22
2023-04-15T01:38:33.706Z,93650.47
2023-04-15T01:41:00.816Z,93629.16
2023-04-15T01:43:28.276Z,93629.91
2023-04-15T01:45:55.124Z,93642.72
2023-04-15T01:48:22.254Z,93658.28
2023-04-15T01:50:49.074Z,93659.34
2023-04-15T01:53:16.913Z,93658.53
2023-04-15T01:55:43.861Z,93673.41
2023-04-15T01:58:10.706Z,93663.81
2023-04-15T02:00:37.515Z,93661.53
2023-04-15T02:03:04.696Z,93670.78
2023-04-15T02:05:31.719Z,93654.97
2023-04-15T02:07:58.469Z,93657.44
2023-04-15T02:10:25.639Z,93659.81
2023-04-15T02:12:52.363Z,93647.28
2023-04-15T02:15:19.273Z,93641.03
2023-04-15T02:17:50.980Z,93663.75
2023-04-15T02:20:19.297Z,93632.41
2023-04-15T02:22:46.202Z,93662.59
2023-04-15T02:25:16.857Z,93658.50
2023-04-15T02:27:46.900Z,93642.19
2023-04-15T02:30:15.933Z,93657.19
2023-04-15T02:32:45.195Z,93654.88
2023-04-15T02:35:12.551Z,93651.34
2023-04-15T02:37:43.601Z,93648.78
2023-04-15T02:40:12.440Z,93660.69
2023-04-15T02:42:40.339Z,93662.03
2023-04-15T02:45:10.355Z,93625.97
2023-04-15T02:47:37.168Z,93653.78
2023-04-15T02:50:09.570Z,93637.69
2023-04-15T02:52:36.814Z,93647.47
2023-04-15T02:55:05.938Z,93634.50
2023-04-15T02:57:32.740Z,93642.00
2023-04-15T03:00:06.261Z,93642.44
2023-04-15T03:02:36.538Z,93630.63
2023-04-15T03:05:06.181Z,93654.56
2023-04-15T03:07:33.480Z,93654.19
2023-04-15T03:10:02.342Z,93619.47
2023-04-15T03:12:30.533Z,93626.38
2023-04-15T03:14:58.304Z,93642.44
2023-04-15T03:17:32.885Z,93626.06
2023-04-15T03:20:02.087Z,93652.91
2023-04-15T03:22:28.991Z,93653.56
2023-04-15T03:24:56.241Z,93663.28
2023-04-15T03:27:23.359Z,93647.84
2023-04-15T03:29:51.375Z,93677.56
2023-04-15T03:32:18.676Z,93636.53
2023-04-15T03:34:45.438Z,93654.47
2023-04-15T03:37:12.230Z,93675.50
2023-04-15T03:39:39.281Z,93665.63
2023-04-15T03:42:06.263Z,93643.63
2023-04-15T03:44:32.957Z,93635.13
2023-04-15T03:46:59.786Z,93668.69
2023-04-15T03:49:26.513Z,93665.94
2023-04-15T03:51:53.473Z,93631.56
2023-04-15T03:54:20.172Z,93655.34
2023-04-15T03:56:47.062Z,93640.19
2023-04-15T03:59:13.771Z,93653.66
2023-04-15T04:01:40.464Z,93660.09
2023-04-15T04:04:07.715Z,93666.91
2023-04-15T04:06:35.084Z,93667.69
2023-04-15T04:09:02.808Z,93663.38
2023-04-15T04:11:29.787Z,93654.13
2023-04-15T04:13:56.639Z,93663.09
2023-04-15T04:16:23.476Z,93665.69
2023-04-15T04:18:50.416Z,93664.25
2023-04-15T04:21:17.342Z,93661.78
2023-04-15T04:23:44.144Z,93652.41
2023-04-15T04:26:11.027Z,93677.50
2023-04-15T04:28:39.617Z,93654.34
2023-04-15T04:31:07.906Z,93672.34
2023-04-15T04:33:35.084Z,93677.03
2023-04-15T04:36:02.092Z,93637.13
2023-04-15T04:38:28.850Z,93651.22
2023-04-15T04:40:55.627Z,93681.38
2023-04-15T04:43:22.430Z,93675.63
2023-04-15T04:45:49.298Z,93668.38
2023-04-15T04:48:17.153Z,93651.97
2023-04-15T04:50:44.893Z,93693.41
2023-04-15T04:53:12.062Z,93672.31
2023-04-15T04:55:38.807Z,93668.56
2023-04-15T04:58:05.749Z,93684.56
2023-04-15T05:00:33.064Z,93683.88
2023-04-15T05:03:00.167Z,93689.09
2023-04-15T05:05:27.137Z,93683.91
2023-04-15T05:07:54.020Z,93671.91
2023-04-15T05:10:21.310Z,93695.81
2023-04-15T05:12:48.101Z,93658.97
2023-04-15T05:15:14.799Z,93675.84
2023-04-15T05:17:41.655Z,93683.78
2023-04-15T05:20:08.855Z,93673.03
2023-04-15T05:22:35.936Z,93692.19
2023-04-15T05:25:02.962Z,93695.97
2023-04-15T05:27:29.963Z,93652.41
2023-04-15T05:29:56.833Z,93690.75
2023-04-15T05:32:23.831Z,93677.31
2023-04-15T05:34:50.825Z,93651.09
2023-04-15T05:37:17.818Z,93682.44
2023-04-15T05:39:44.572Z,93699.13
2023-04-15T05:42:11.524Z,93689.13
2023-04-15T05:44:38.603Z,93696.00
2023-04-15T05:47:06.257Z,93693.22
2023-04-15T05:49:33.155Z,93679.28
2023-04-15T05:51:59.892Z,93691.50
2023-04-15T05:54:27.913Z,93686.59
2023-04-15T05:56:55.147Z,93654.53
2023-04-15T05:59:22.434Z,93668.16
2023-04-15T06:01:50.148Z,93695.09
2023-04-15T06:04:17.906Z,93672.16
2023-04-15T06:06:44.836Z,93697.84
2023-04-15T06:09:11.698Z,93695.03
2023-04-15T06:11:38.751Z,93680.75
2023-04-15T06:14:05.467Z,93675.47
2023-04-15T06:16:32.328Z,93705.66
2023-04-15T06:18:59.116Z,93673.97
2023-04-15T06:21:25.933Z,93692.06
2023-04-15T06:23:53.299Z,93685.91
2023-04-15T06:26:20.642Z,93686.16
2023-04-15T06:28:47.557Z,93664.00
2023-04-15T06:31:14.686Z,93693.34
2023-04-15T06:33:41.479Z,93700.22
2023-04-15T06:36:08.178Z,93668.88
2023-04-15T06:38:35.064Z,93664.94
2023-04-15T06:41:03.410Z,93667.59
2023-04-15T06:43:30.832Z,93662.91
2023-04-15T06:45:57.556Z,93689.56
2023-04-15T06:48:24.951Z,93696.44
2023-04-15T06:50:53.183Z,93695.97
2023-04-15T06:53:19.885Z,93673.88
2023-04-15T06:55:46.649Z,93691.34
2023-04-15T06:58:13.410Z,93707.66
2023-04-15T07:00:40.689Z,93698.94
2023-04-15T07:03:11.090Z,93702.84
2023-04-15T07:05:38.785Z,93683.00
2023-04-15T07:08:06.940Z,93701.63
2023-04-15T07:10:34.428Z,93650.47
2023-04-15T07:13:01.902Z,93684.63
2023-04-15T07:15:29.301Z,93691.28
2023-04-15T07:17:56.316Z,93689.72
2023-04-15T07:20:23.396Z,93660.09
2023-04-15T07:22:50.123Z,93699.44
2023-04-15T07:25:17.802Z,93707.19
2023-04-15T07:27:44.903Z,93698.34
2023-04-15T07:30:12.846Z,93716.09
2023-04-15T07:32:40.562Z,93702.81
2023-04-15T07:35:08.585Z,93703.88
2023-04-15T07:37:36.344Z,93681.75
2023-04-15T07:40:05.076Z,93718.34
2023-04-15T07:42:31.866Z,93728.63
2023-04-15T07:44:58.634Z,93717.28
2023-04-15T07:47:25.866Z,93710.41
2023-04-15T07:49:53.786Z,93707.00
2023-04-15T07:52:20.544Z,93709.28
2023-04-15T07:54:47.208Z,93728.91
2023-04-15T07:57:13.985Z,93721.50
2023-04-15T07:59:40.733Z,93715.34
2023-04-15T08:02:08.880Z,93706.03
2023-04-15T08:04:35.880Z,93737.63
2023-04-15T08:07:04.232Z,93746.19
2023-04-15T08:09:31.347Z,93683.50
2023-04-15T08:11:58.125Z,93680.75
2023-04-15T08:14:25.493Z,93701.81
2023-04-15T08:16:52.693Z,93670.25
2023-04-15T08:19:19.947Z,93726.84
2023-04-15T08:21:46.893Z,93698.47
2023-04-15T08:24:13.707Z,93708.91
2023-04-15T08:26:40.584Z,93709.09
2023-04-15T08:29:07.776Z,93697.25
2023-04-15T08:31:34.851Z,93697.03
2023-04-15T08:34:01.776Z,93753.69
2023-04-15T08:36:28.641Z,93726.19
2023-04-15T08:38:56.137Z,93707.72
2023-04-15T08:41:27.411Z,93729.94
2023-04-15T08:44:06.916Z,93721.44
2023-04-15T08:46:34.976Z,93720.06
2023-04-15T08:49:05.250Z,93736.09
2023-04-15T08:51:32.984Z,93716.25
2023-04-15T08:54:01.554Z,93704.78
2023-04-15T08:56:28.451Z,93734.63
2023-04-15T08:58:55.744Z,93732.53
2023-04-15T09:01:23.424Z,93713.28
2023-04-15T09:03:51.015Z,93713.13
2023-04-15T09:06:18.777Z,93713.97
2023-04-15T09:08:45.824Z,93741.72
2023-04-15T09:11:12.625Z,93748.06
2023-04-15T09:13:40.193Z,93710.66
2023-04-15T09:16:08.645Z,93761.44
2023-04-15T09:18:39.734Z,93742.31
2023-04-15T09:21:09.807Z,93743.47
2023-04-15T09:23:38.508Z,93738.53
2023-04-15T09:26:05.872Z,93777.09
2023-04-15T09:28:32.811Z,93761.22
2023-04-15T09:31:01.292Z,93759.28
2023-04-15T09:33:29.295Z,93727.63
2023-04-15T09:36:06.111Z,93756.81
2023-04-15T09:38:33.071Z,93768.69
2023-04-15T09:41:00.224Z,93744.88
2023-04-15T09:43:41.061Z,93787.81
2023-04-15T09:46:07.860Z,93753.47
2023-04-15T09:48:36.525Z,93782.34
2023-04-15T09:51:03.499Z,93748.25
2023-04-15T09:53:34.419Z,93751.44
2023-04-15T09:56:02.804Z,93744.38
2023-04-15T09:58:31.991Z,93747.75
2023-04-15T10:01:00.489Z,93717.72
2023-04-15T10:03:30.337Z,93743.06
2023-04-15T10:06:00.284Z,93761.28
2023-04-15T10:08:29.201Z,93777.44
2023-04-15T10:10:56.788Z,93758.72
2023-04-15T10:13:26.798Z,93778.47
2023-04-15T10:15:59.607Z,93771.03
2023-04-15T10:18:28.158Z,93776.72
2023-04-15T10:20:55.665Z,93760.44
2023-04-15T10:23:25.567Z,93797.59
2023-04-15T10:25:56.699Z,93823.69
2023-04-15T10:28:24.131Z,93791.78
2023-04-15T10:30:52.736Z,93794.63
2023-04-15T10:33:22.876Z,93818.97
2023-04-15T10:35:51.767Z,93788.81
2023-04-15T10:38:37.500Z,93808.28
2023-04-15T10:41:28.148Z,93809.41
2023-04-15T10:43:57.954Z,93817.72
2023-04-15T10:46:36.056Z,93811.03
2023-04-15T10:49:08.320Z,93821.72
2023-04-15T10:51:41.935Z,93813.31
2023-04-15T10:54:16.269Z,93790.81
2023-04-15T10:56:44.885Z,93819.28
2023-04-15T10:59:12.728Z,93755.78
2023-04-15T11:01:58.856Z,93786.81
2023-04-15T11:04:55.114Z,93800.22
2023-04-15T11:07:44.348Z,93809.25
2023-04-15T11:10:13.817Z,93816.38
2023-04-15T11:12:42.169Z,93791.22
2023-04-15T11:15:43.061Z,93784.59
2023-04-15T11:18:16.846Z,93815.81
2023-04-15T11:20:45.427Z,93777.25
2023-04-15T11:23:15.295Z,93804.09
2023-04-15T11:25:43.312Z,93797.41
2023-04-15T11:28:12.304Z,93819.53
2023-04-15T11:30:41.349Z,93819.63
2023-04-15T11:33:10.186Z,93803.22
2023-04-15T11:35:37.023Z,93815.34
2023-04-15T11:38:12.412Z,93809.50
2023-04-15T11:40:39.940Z,93783.25
2023-04-15T11:43:15.863Z,93778.88
2023-04-15T11:45:56.472Z,93790.63
2023-04-15T11:48:26.407Z,93793.38
2023-04-15T11:50:56.325Z,93798.44
2023-04-15T11:53:24.182Z,93802.56
2023-04-15T11:55:53.998Z,93818.38
2023-04-15T11:58:23.434Z,93823.22
2023-04-15T12:01:00.288Z,93826.72
2023-04-15T12:03:28.663Z,93790.78
2023-04-15T12:06:13.502Z,93807.47
2023-04-15T12:08:55.447Z,93823.09
2023-04-15T12:11:31.396Z,93836.06
2023-04-15T12:14:11.387Z,93805.25
2023-04-15T12:16:45.703Z,93794.16
2023-04-15T12:19:19.442Z,93818.41
2023-04-15T12:21:48.707Z,93799.53
2023-04-15T12:24:15.524Z,93799.97
2023-04-15T12:26:53.720Z,93796.72
2023-04-15T12:29:25.412Z,93822.72
2023-04-15T12:31:53.506Z,93804.69
2023-04-15T12:34:32.412Z,93802.41
2023-04-15T12:37:03.604Z,93801.53
2023-04-15T12:39:37.868Z,93800.88
2023-04-15T12:42:05.433Z,93807.56
2023-04-15T12:44:33.217Z,93809.91
2023-04-15T12:47:00.617Z,93802.69
2023-04-15T12:49:28.209Z,93817.44
2023-04-15T12:51:57.116Z,93799.16
2023-04-15T12:54:23.908Z,93784.75
2023-04-15T12:56:51.406Z,93802.59
2023-04-15T12:59:18.811Z,93792.97
2023-04-15T13:01:47.562Z,93781.44
2023-04-15T13:04:15.200Z,93787.75
2023-04-15T13:06:42.291Z,93800.34
2023-04-15T13:09:09.411Z,93805.41
2023-04-15T13:11:36.769Z,93808.81
2023-04-15T13:14:09.465Z,93830.16
2023-04-15T13:16:36.675Z,93801.59
2023-04-15T13:19:04.022Z,93836.66
2023-04-15T13:21:35.294Z,93814.69
2023-04-15T13:24:04.276Z,93794.84
2023-04-15T13:26:31.759Z,93805.84
2023-04-15T13:28:59.127Z,93823.19
2023-04-15T13:31:26.352Z,93840.66
2023-04-15T13:33:53.374Z,93851.69
2023-04-15T13:36:20.126Z,93889.44
2023-04-15T13:38:48.041Z,93849.72
2023-04-15T13:41:16.494Z,93862.72
2023-04-15T13:43:43.875Z,93875.75
2023-04-15T13:46:11.238Z,93904.25
2023-04-15T13:48:38.272Z,93872.03
2023-04-15T13:51:05.030Z,93894.84
2023-04-15T13:53:37.753Z,93892.03
2023-04-15T13:56:08.709Z,93885.38
2023-04-15T13:58:36.964Z,93904.50
2023-04-15T14:01:05.839Z,93881.81
2023-04-15T14:03:34.574Z,93883.28
2023-04-15T14:06:01.635Z,93874.78
2023-04-15T14:08:29.013Z,93879.25
2023-04-15T14:10:55.812Z,93905.00
2023-04-15T14:13:23.088Z,93906.25
2023-04-15T14:15:49.883Z,93912.25
2023-04-15T14:18:16.856Z,93921.72
2023-04-15T14:20:43.759Z,93875.22
2023-04-15T14:23:10.477Z,93921.44
2023-04-15T14:25:39.303Z,93912.50
2023-04-15T14:28:06.154Z,93898.00
2023-04-15T14:30:33.201Z,93955.28
2023-04-15T14:33:00.104Z,93882.56
2023-04-15T14:35:27.580Z,93949.56
2023-04-15T14:37:55.758Z,93943.25
2023-04-15T14:40:22.846Z,93905.13
2023-04-15T14:42:49.820Z,93920.03
2023-04-15T14:45:17.610Z,93929.19
2023-04-15T14:47:45.075Z,93961.34
2023-04-15T14:50:13.465Z,93935.09
2023-04-15T14:52:40.236Z,93957.88
2023-04-15T14:55:12.034Z,93949.25
2023-04-15T14:57:40.132Z,93976.38
2023-04-15T15:00:08.822Z,93978.69
2023-04-15T15:02:39.597Z,94000.78
2023-04-15T15:05:09.006Z,94003.38
2023-04-15T15:07:37.353Z,94009.34
2023-04-15T15:10:04.725Z,94003.22
2023-04-15T15:12:32.101Z,94017.91
2023-04-15T15:15:00.416Z,94002.53
2023-04-15T15:17:27.433Z,93996.56
2023-04-15T15:19:55.721Z,93983.50
2023-04-15T15:22:22.548Z,93999.84
2023-04-15T15:24:49.283Z,94013.06
2023-04-15T15:27:16.097Z,94007.75
2023-04-15T15:29:43.577Z,94026.44
2023-04-15T15:32:10.362Z,94029.88
2023-04-15T15:34:37.005Z,94026.41
2023-04-15T15:37:03.732Z,94015.72
2023-04-15T15:39:30.487Z,94004.84
2023-04-15T15:41:57.620Z,94029.53
2023-04-15T15:44:24.406Z,94050.88
2023-04-15T15:46:51.481Z,94033.81
2023-04-15T15:49:18.367Z,94025.22
2023-04-15T15:51:45.973Z,94010.06
2023-04-15T15:54:13.756Z,94024.06
2023-04-15T15:56:40.658Z,94028.09
2023-04-15T15:59:07.375Z,94026.56
2023-04-15T16:01:34.356Z,94024.41
2023-04-15T16:04:01.361Z,94006.34
2023-04-15T16:06:28.936Z,94004.28
2023-04-15T16:08:55.708Z,94025.00
2023-04-15T16:11:23.337Z,94029.69
2023-04-15T16:13:50.109Z,94045.59
2023-04-15T16:16:17.018Z,93987.31
2023-04-15T16:18:44.021Z,94004.88
2023-04-15T16:21:10.957Z,94012.31
2023-04-15T16:23:38.345Z,94014.41
2023-04-15T16:26:05.257Z,94026.00
2023-04-15T16:28:32.192Z,94055.47
2023-04-15T16:30:59.461Z,94037.00
2023-04-15T16:33:26.967Z,94073.59
2023-04-15T16:35:53.844Z,94080.16
2023-04-15T16:38:21.677Z,94076.56
2023-04-15T16:40:48.460Z,94087.13
2023-04-15T16:43:15.522Z,94067.75
2023-04-15T16:45:44.432Z,94096.19
2023-04-15T16:48:11.332Z,94079.75
2023-04-15T16:50:38.549Z,94099.19
2023-04-15T16:53:05.356Z,94095.31
2023-04-15T16:55:32.034Z,94137.09
2023-04-15T16:58:02.458Z,94118.66
2023-04-15T17:00:31.604Z,94099.72
2023-04-15T17:03:00.731Z,94125.13
2023-04-15T17:05:28.163Z,94080.44
2023-04-15T17:07:55.520Z,94135.88
2023-04-15T17:10:22.612Z,94121.16
2023-04-15T17:12:52.069Z,94149.53
2023-04-15T17:15:20.135Z,94106.50
2023-04-15T17:17:46.954Z,94135.81
2023-04-15T17:20:14.717Z,94124.81
2023-04-15T17:22:42.274Z,94152.38
2023-04-15T17:25:09.471Z,94147.03
2023-04-15T17:27:36.377Z,94124.47
2023-04-15T17:30:03.239Z,94133.66
2023-04-15T17:32:34.473Z,94169.72
2023-04-15T17:35:05.616Z,94181.00
2023-04-15T17:37:36.119Z,94179.81
2023-04-15T17:40:04.047Z,94170.19
2023-04-15T17:42:32.270Z,94190.94
2023-04-15T17:45:04.179Z,94164.81
2023-04-15T17:47:34.270Z,94191.38
2023-04-15T17:50:01.728Z,94194.25
2023-04-15T17:52:28.994Z,94213.09
2023-04-15T17:54:55.933Z,94217.69
2023-04-15T17:57:22.922Z,94163.91
2023-04-15T17:59:49.686Z,94191.56
2023-04-15T18:02:17.217Z,94189.00
2023-04-15T18:04:44.172Z,94189.31
2023-04-15T18:07:11.167Z,94192.72
2023-04-15T18:09:38.063Z,94221.03
2023-04-15T18:12:07.574Z,94206.22
2023-04-15T18:14:35.359Z,94202.91
2023-04-15T18:17:02.755Z,94205.06
2023-04-15T18:19:30.913Z,94221.91
2023-04-15T18:22:00.263Z,94230.66
2023-04-15T18:24:27.840Z,94204.50
2023-04-15T18:26:54.579Z,94222.69
2023-04-15T18:29:21.350Z,94243.78
2023-04-15T18:31:48.428Z,94244.06
2023-04-15T18:34:15.728Z,94229.19
2023-04-15T18:36:42.769Z,94237.78
2023-04-15T18:39:09.796Z,94273.19
2023-04-15T18:41:36.692Z,94231.84
2023-04-15T18:44:03.401Z,94249.97
2023-04-15T18:46:30.712Z,94265.09
2023-04-15T18:48:57.484Z,94259.56
2023-04-15T18:51:24.263Z,94256.41
2023-04-15T18:53:51.579Z,94274.78
2023-04-15T18:56:18.393Z,94252.75
2023-04-15T18:59:11.553Z,94282.38
2023-04-15T19:01:32.601Z,94278.66
2023-04-15T19:03:59.681Z,94287.25
2023-04-15T19:06:27.388Z,94292.25
2023-04-15T19:08:54.975Z,94294.53
2023-04-15T19:11:21.847Z,94290.28
2023-04-15T19:13:48.660Z,94292.16
2023-04-15T19:16:15.877Z,94287.31
2023-04-15T19:18:43.174Z,94299.44
2023-04-15T19:21:11.813Z,94303.25
2023-04-15T19:23:39.288Z,94304.66
2023-04-15T19:26:08.274Z,94307.25
2023-04-15T19:28:35.039Z,94301.22
2023-04-15T19:31:02.086Z,94291.66
2023-04-15T19:33:31.351Z,94317.47
2023-04-15T19:36:04.110Z,94336.31
2023-04-15T19:38:31.913Z,94323.25
2023-04-15T19:40:59.652Z,94321.88
2023-04-15T19:43:26.514Z,94335.38
2023-04-15T19:45:54.659Z,94315.81
2023-04-15T19:48:22.893Z,94323.03
2023-04-15T19:50:50.095Z,94326.53
2023-04-15T19:53:17.293Z,94339.56
2023-04-15T19:55:44.261Z,94326.06
2023-04-15T19:58:11.825Z,94338.22
2023-04-15T20:00:38.855Z,94323.56
2023-04-15T20:03:05.908Z,94341.34
2023-04-15T20:05:32.758Z,94349.66
2023-04-15T20:08:01.442Z,94338.59
2023-04-15T20:10:28.313Z,94341.41
2023-04-15T20:12:55.557Z,94346.34
2023-04-15T20:15:23.952Z,94348.84
2023-04-15T20:17:51.241Z,94358.25
2023-04-15T20:20:18.454Z,94364.34
2023-04-15T20:22:45.425Z,94358.44
2023-04-15T20:25:12.498Z,94339.25
2023-04-15T20:27:39.582Z,94359.09
2023-04-15T20:30:07.390Z,94328.34
2023-04-15T20:32:36.139Z,94364.44
2023-04-15T20:35:04.442Z,94371.41
2023-04-15T20:37:33.643Z,94363.19
2023-04-15T20:40:01.837Z,94373.41
2023-04-15T20:42:33.675Z,94382.25
2023-04-15T20:45:01.389Z,94373.16
2023-04-15T20:47:28.487Z,94379.75
2023-04-15T20:49:55.724Z,94376.63
2023-04-15T20:52:22.474Z,94370.06
2023-04-15T20:54:49.310Z,94355.59
2023-04-15T20:57:16.891Z,94385.16
2023-04-15T20:59:43.867Z,94377.22
2023-04-15T21:02:11.066Z,94390.31
2023-04-15T21:04:41.096Z,94397.22
2023-04-15T21:07:08.106Z,94397.34
2023-04-15T21:09:34.847Z,94390.63
2023-04-15T21:12:02.424Z,94382.63
2023-04-15T21:14:29.518Z,94412.53
2023-04-15T21:16:59.078Z,94407.47
2023-04-15T21:19:26.067Z,94383.72
2023-04-15T21:21:52.811Z,94408.16
2023-04-15T21:24:19.606Z,94409.25
2023-04-15T21:26:47.030Z,94416.44
2023-04-15T21:29:13.914Z,94379.78
2023-04-15T21:31:41.277Z,94421.97
2023-04-15T21:34:08.242Z,94406.19
2023-04-15T21:36:34.995Z,94416.97
2023-04-15T21:39:02.576Z,94418.88
2023-04-15T21:41:29.973Z,94420.53
2023-04-15T21:43:57.366Z,94425.13
2023-04-15T21:46:25.690Z,94433.41
2023-04-15T21:48:59.863Z,94402.44
2023-04-15T21:51:26.919Z,94431.72
2023-04-15T21:53:53.839Z,94428.78
2023-04-15T21:56:23.143Z,94441.03
2023-04-15T21:58:50.140Z,94435.41
2023-04-15T22:01:17.565Z,94442.94
2023-04-15T22:03:44.557Z,94444.59
2023-04-15T22:06:13.623Z,94443.16
2023-04-15T22:08:54.787Z,94437.13
2023-04-15T22:11:26.974Z,94445.88
2023-04-15T22:13:54.386Z,94418.53
2023-04-15T22:16:21.264Z,94460.22
2023-04-15T22:18:48.076Z,94455.94
2023-04-15T22:21:15.057Z,94450.38
2023-04-15T22:23:41.800Z,94440.41
2023-04-15T22:26:08.585Z,94455.28
2023-04-15T22:28:35.307Z,94449.97
2023-04-15T22:31:02.926Z,94458.06
2023-04-15T22:33:29.660Z,94470.69
2023-04-15T22:35:56.984Z,94453.16
2023-04-15T22:38:24.461Z,94480.59
2023-04-15T22:40:53.948Z,94462.19
2023-04-15T22:43:20.726Z,94477.19
2023-04-15T22:45:51.481Z,94484.34
2023-04-15T22:48:19.163Z,94453.91
2023-04-15T22:50:46.606Z,94460.63
2023-04-15T22:53:20.125Z,94488.56
2023-04-15T22:55:48.166Z,94477.97
2023-04-15T22:58:16.640Z,94474.41
2023-04-15T23:00:43.498Z,94493.94
2023-04-15T23:03:11.007Z,94481.78
2023-04-15T23:05:40.056Z,94492.44
2023-04-15T23:08:07.440Z,94493.06
2023-04-15T23:10:34.548Z,94478.53
2023-04-15T23:13:01.928Z,94488.41
2023-04-15T23:15:28.671Z,94495.44
2023-04-15T23:17:55.469Z,94493.41
2023-04-15T23:20:22.255Z,94498.28
2023-04-15T23:22:49.464Z,94506.28
2023-04-15T23:25:16.629Z,94487.03
2023-04-15T23:27:43.529Z,94494.13
2023-04-15T23:30:10.485Z,94509.41
2023-04-15T23:32:37.198Z,94507.19
2023-04-15T23:35:04.468Z,94483.38
2023-04-15T23:37:34.342Z,94517.25
2023-04-15T23:40:01.229Z,94515.69
2023-04-15T23:42:28.788Z,94508.66
2023-04-15T23:44:55.778Z,94524.25
2023-04-15T23:47:22.837Z,94505.91
2023-04-15T23:49:50.074Z,94491.88
2023-04-15T23:52:17.352Z,94498.31
2023-04-15T23:54:44.345Z,94513.50
2023-04-15T23:57:11.276Z,94499.16
2023-04-15T23:59:38.077Z,94500.16
